sensor_id;sensor_type;location;lat;lon;timestamp;P1;durP1;ratioP1;P2;durP2;ratioP2
52940;SDS011;62001;53.366;6.636;2023-12-29T00:00:43;23.77;;;5.28;;
52940;SDS011;62001;53.366;6.636;2023-12-29T00:03:09;26.95;;;5.20;;
52940;SDS011;62001;53.366;6.636;2023-12-29T00:05:35;32.63;;;5.32;;
52940;SDS011;62001;53.366;6.636;2023-12-29T00:08:01;29.15;;;5.25;;
52940;SDS011;62001;53.366;6.636;2023-12-29T00:10:27;26.30;;;5.68;;
52940;SDS011;62001;53.366;6.636;2023-12-29T00:12:53;22.15;;;4.78;;
52940;SDS011;62001;53.366;6.636;2023-12-29T00:15:19;26.88;;;5.28;;
52940;SDS011;62001;53.366;6.636;2023-12-29T00:17:45;30.33;;;5.32;;
52940;SDS011;62001;53.366;6.636;2023-12-29T00:20:12;20.45;;;5.03;;
52940;SDS011;62001;53.366;6.636;2023-12-29T00:22:37;28.13;;;5.50;;
52940;SDS011;62001;53.366;6.636;2023-12-29T00:25:04;30.60;;;4.95;;
52940;SDS011;62001;53.366;6.636;2023-12-29T00:27:30;23.83;;;4.80;;
52940;SDS011;62001;53.366;6.636;2023-12-29T00:29:56;22.25;;;5.07;;
52940;SDS011;62001;53.366;6.636;2023-12-29T00:32:22;24.92;;;4.88;;
52940;SDS011;62001;53.366;6.636;2023-12-29T00:34:47;23.00;;;4.80;;
52940;SDS011;62001;53.366;6.636;2023-12-29T00:37:13;27.52;;;5.07;;
52940;SDS011;62001;53.366;6.636;2023-12-29T00:39:39;22.65;;;4.45;;
52940;SDS011;62001;53.366;6.636;2023-12-29T00:42:05;27.92;;;5.10;;
52940;SDS011;62001;53.366;6.636;2023-12-29T00:44:31;21.08;;;4.55;;
52940;SDS011;62001;53.366;6.636;2023-12-29T00:46:58;30.88;;;4.93;;
52940;SDS011;62001;53.366;6.636;2023-12-29T00:49:27;20.20;;;4.60;;
52940;SDS011;62001;53.366;6.636;2023-12-29T00:51:53;21.00;;;4.78;;
52940;SDS011;62001;53.366;6.636;2023-12-29T00:54:19;26.38;;;5.03;;
52940;SDS011;62001;53.366;6.636;2023-12-29T00:56:51;25.20;;;5.55;;
52940;SDS011;62001;53.366;6.636;2023-12-29T00:59:20;30.70;;;5.65;;
52940;SDS011;62001;53.366;6.636;2023-12-29T01:01:45;21.42;;;5.00;;
52940;SDS011;62001;53.366;6.636;2023-12-29T01:04:11;21.95;;;4.95;;
52940;SDS011;62001;53.366;6.636;2023-12-29T01:06:37;27.63;;;5.35;;
52940;SDS011;62001;53.366;6.636;2023-12-29T01:09:03;30.50;;;5.70;;
52940;SDS011;62001;53.366;6.636;2023-12-29T01:11:29;24.85;;;4.57;;
52940;SDS011;62001;53.366;6.636;2023-12-29T01:13:55;23.95;;;4.97;;
52940;SDS011;62001;53.366;6.636;2023-12-29T01:16:21;22.42;;;4.55;;
52940;SDS011;62001;53.366;6.636;2023-12-29T01:18:47;35.28;;;5.95;;
52940;SDS011;62001;53.366;6.636;2023-12-29T01:21:13;27.08;;;5.10;;
52940;SDS011;62001;53.366;6.636;2023-12-29T01:23:38;31.67;;;5.20;;
52940;SDS011;62001;53.366;6.636;2023-12-29T01:26:04;26.15;;;4.85;;
52940;SDS011;62001;53.366;6.636;2023-12-29T01:28:30;24.63;;;5.18;;
52940;SDS011;62001;53.366;6.636;2023-12-29T01:30:56;25.85;;;4.57;;
52940;SDS011;62001;53.366;6.636;2023-12-29T01:33:22;26.35;;;4.82;;
52940;SDS011;62001;53.366;6.636;2023-12-29T01:35:48;24.20;;;4.78;;
52940;SDS011;62001;53.366;6.636;2023-12-29T01:38:14;21.63;;;4.93;;
52940;SDS011;62001;53.366;6.636;2023-12-29T01:40:44;31.45;;;5.07;;
52940;SDS011;62001;53.366;6.636;2023-12-29T01:43:10;24.40;;;5.20;;
52940;SDS011;62001;53.366;6.636;2023-12-29T01:45:36;29.48;;;5.35;;
52940;SDS011;62001;53.366;6.636;2023-12-29T01:48:02;26.63;;;5.05;;
52940;SDS011;62001;53.366;6.636;2023-12-29T01:50:29;25.73;;;4.57;;
52940;SDS011;62001;53.366;6.636;2023-12-29T01:52:55;23.55;;;4.60;;
52940;SDS011;62001;53.366;6.636;2023-12-29T01:55:22;30.65;;;5.15;;
52940;SDS011;62001;53.366;6.636;2023-12-29T01:57:50;30.60;;;5.10;;
52940;SDS011;62001;53.366;6.636;2023-12-29T02:00:17;29.15;;;4.78;;
52940;SDS011;62001;53.366;6.636;2023-12-29T02:02:46;24.65;;;5.03;;
52940;SDS011;62001;53.366;6.636;2023-12-29T02:05:13;30.88;;;5.55;;
52940;SDS011;62001;53.366;6.636;2023-12-29T02:07:41;28.25;;;5.80;;
52940;SDS011;62001;53.366;6.636;2023-12-29T02:10:07;29.35;;;5.60;;
52940;SDS011;62001;53.366;6.636;2023-12-29T02:12:34;39.20;;;5.43;;
52940;SDS011;62001;53.366;6.636;2023-12-29T02:15:02;36.20;;;6.03;;
52940;SDS011;62001;53.366;6.636;2023-12-29T02:17:31;22.73;;;4.90;;
52940;SDS011;62001;53.366;6.636;2023-12-29T02:20:01;27.38;;;4.88;;
52940;SDS011;62001;53.366;6.636;2023-12-29T02:22:27;23.38;;;4.88;;
52940;SDS011;62001;53.366;6.636;2023-12-29T02:24:52;22.55;;;4.22;;
52940;SDS011;62001;53.366;6.636;2023-12-29T02:27:21;22.95;;;4.53;;
52940;SDS011;62001;53.366;6.636;2023-12-29T02:30:16;23.80;;;4.80;;
52940;SDS011;62001;53.366;6.636;2023-12-29T02:33:01;24.95;;;4.72;;
52940;SDS011;62001;53.366;6.636;2023-12-29T02:35:35;26.25;;;4.80;;
52940;SDS011;62001;53.366;6.636;2023-12-29T02:38:04;24.10;;;4.80;;
52940;SDS011;62001;53.366;6.636;2023-12-29T02:40:31;24.30;;;5.30;;
52940;SDS011;62001;53.366;6.636;2023-12-29T02:42:57;22.42;;;4.93;;
52940;SDS011;62001;53.366;6.636;2023-12-29T02:45:23;23.88;;;4.88;;
52940;SDS011;62001;53.366;6.636;2023-12-29T02:47:49;22.02;;;4.00;;
52940;SDS011;62001;53.366;6.636;2023-12-29T02:50:15;21.13;;;4.20;;
52940;SDS011;62001;53.366;6.636;2023-12-29T02:52:41;21.42;;;4.63;;
52940;SDS011;62001;53.366;6.636;2023-12-29T02:55:07;24.67;;;4.20;;
52940;SDS011;62001;53.366;6.636;2023-12-29T02:57:33;24.70;;;4.53;;
52940;SDS011;62001;53.366;6.636;2023-12-29T02:59:59;27.23;;;4.80;;
52940;SDS011;62001;53.366;6.636;2023-12-29T03:02:24;35.83;;;5.05;;
52940;SDS011;62001;53.366;6.636;2023-12-29T03:04:50;25.38;;;4.60;;
52940;SDS011;62001;53.366;6.636;2023-12-29T03:07:16;26.08;;;5.20;;
52940;SDS011;62001;53.366;6.636;2023-12-29T03:09:42;33.85;;;6.18;;
52940;SDS011;62001;53.366;6.636;2023-12-29T03:12:08;36.10;;;6.82;;
52940;SDS011;62001;53.366;6.636;2023-12-29T03:14:34;37.10;;;6.78;;
52940;SDS011;62001;53.366;6.636;2023-12-29T03:17:00;44.25;;;6.65;;
52940;SDS011;62001;53.366;6.636;2023-12-29T03:19:26;34.30;;;6.22;;
52940;SDS011;62001;53.366;6.636;2023-12-29T03:21:52;35.75;;;6.32;;
52940;SDS011;62001;53.366;6.636;2023-12-29T03:24:19;38.53;;;6.72;;
52940;SDS011;62001;53.366;6.636;2023-12-29T03:26:45;38.10;;;7.03;;
52940;SDS011;62001;53.366;6.636;2023-12-29T03:29:11;40.58;;;7.30;;
52940;SDS011;62001;53.366;6.636;2023-12-29T03:31:37;43.55;;;8.05;;
52940;SDS011;62001;53.366;6.636;2023-12-29T03:34:04;42.72;;;7.68;;
52940;SDS011;62001;53.366;6.636;2023-12-29T03:36:30;35.97;;;6.90;;
52940;SDS011;62001;53.366;6.636;2023-12-29T03:38:56;38.28;;;7.28;;
52940;SDS011;62001;53.366;6.636;2023-12-29T03:41:22;42.25;;;7.72;;
52940;SDS011;62001;53.366;6.636;2023-12-29T03:43:48;54.25;;;8.15;;
52940;SDS011;62001;53.366;6.636;2023-12-29T03:46:20;40.47;;;7.30;;
52940;SDS011;62001;53.366;6.636;2023-12-29T03:48:47;42.42;;;7.47;;
52940;SDS011;62001;53.366;6.636;2023-12-29T03:51:13;45.42;;;7.55;;
52940;SDS011;62001;53.366;6.636;2023-12-29T03:53:39;49.15;;;8.80;;
52940;SDS011;62001;53.366;6.636;2023-12-29T03:56:13;42.28;;;8.40;;
52940;SDS011;62001;53.366;6.636;2023-12-29T03:58:41;45.13;;;8.80;;
52940;SDS011;62001;53.366;6.636;2023-12-29T04:01:11;43.15;;;7.88;;
52940;SDS011;62001;53.366;6.636;2023-12-29T04:03:37;38.65;;;8.20;;
52940;SDS011;62001;53.366;6.636;2023-12-29T04:06:04;44.55;;;7.50;;
52940;SDS011;62001;53.366;6.636;2023-12-29T04:08:30;43.92;;;7.88;;
52940;SDS011;62001;53.366;6.636;2023-12-29T04:10:56;45.08;;;7.90;;
52940;SDS011;62001;53.366;6.636;2023-12-29T04:13:22;40.13;;;6.88;;
52940;SDS011;62001;53.366;6.636;2023-12-29T04:15:48;39.00;;;7.55;;
52940;SDS011;62001;53.366;6.636;2023-12-29T04:18:13;44.40;;;7.80;;
52940;SDS011;62001;53.366;6.636;2023-12-29T04:20:39;33.90;;;6.65;;
52940;SDS011;62001;53.366;6.636;2023-12-29T04:23:06;39.85;;;7.00;;
52940;SDS011;62001;53.366;6.636;2023-12-29T04:25:33;41.78;;;7.22;;
52940;SDS011;62001;53.366;6.636;2023-12-29T04:27:59;41.80;;;6.53;;
52940;SDS011;62001;53.366;6.636;2023-12-29T04:30:24;41.63;;;6.70;;
52940;SDS011;62001;53.366;6.636;2023-12-29T04:32:50;40.88;;;7.07;;
52940;SDS011;62001;53.366;6.636;2023-12-29T04:35:16;41.85;;;7.30;;
52940;SDS011;62001;53.366;6.636;2023-12-29T04:37:43;39.75;;;7.55;;
52940;SDS011;62001;53.366;6.636;2023-12-29T04:40:10;33.05;;;6.40;;
52940;SDS011;62001;53.366;6.636;2023-12-29T04:42:37;35.90;;;6.47;;
52940;SDS011;62001;53.366;6.636;2023-12-29T04:45:03;35.42;;;6.95;;
52940;SDS011;62001;53.366;6.636;2023-12-29T04:47:30;37.00;;;6.97;;
52940;SDS011;62001;53.366;6.636;2023-12-29T04:49:56;36.10;;;6.68;;
52940;SDS011;62001;53.366;6.636;2023-12-29T04:52:22;35.58;;;6.78;;
52940;SDS011;62001;53.366;6.636;2023-12-29T04:54:48;35.75;;;6.50;;
52940;SDS011;62001;53.366;6.636;2023-12-29T04:57:14;36.22;;;6.90;;
52940;SDS011;62001;53.366;6.636;2023-12-29T04:59:40;49.88;;;7.05;;
52940;SDS011;62001;53.366;6.636;2023-12-29T05:02:06;35.00;;;6.95;;
52940;SDS011;62001;53.366;6.636;2023-12-29T05:04:32;37.80;;;6.88;;
52940;SDS011;62001;53.366;6.636;2023-12-29T05:06:58;36.45;;;6.95;;
52940;SDS011;62001;53.366;6.636;2023-12-29T05:09:23;36.25;;;6.68;;
52940;SDS011;62001;53.366;6.636;2023-12-29T05:11:49;39.95;;;6.60;;
52940;SDS011;62001;53.366;6.636;2023-12-29T05:14:15;37.58;;;6.68;;
52940;SDS011;62001;53.366;6.636;2023-12-29T05:16:42;33.05;;;7.18;;
52940;SDS011;62001;53.366;6.636;2023-12-29T05:19:08;32.65;;;5.90;;
52940;SDS011;62001;53.366;6.636;2023-12-29T05:21:34;32.97;;;6.18;;
52940;SDS011;62001;53.366;6.636;2023-12-29T05:23:59;34.85;;;6.45;;
52940;SDS011;62001;53.366;6.636;2023-12-29T05:26:25;36.97;;;7.00;;
52940;SDS011;62001;53.366;6.636;2023-12-29T05:28:51;36.03;;;6.70;;
52940;SDS011;62001;53.366;6.636;2023-12-29T05:31:17;39.20;;;6.43;;
52940;SDS011;62001;53.366;6.636;2023-12-29T05:33:43;32.50;;;5.93;;
52940;SDS011;62001;53.366;6.636;2023-12-29T05:36:10;34.55;;;6.68;;
52940;SDS011;62001;53.366;6.636;2023-12-29T05:38:36;39.63;;;6.85;;
52940;SDS011;62001;53.366;6.636;2023-12-29T05:41:03;35.38;;;6.30;;
52940;SDS011;62001;53.366;6.636;2023-12-29T05:43:32;36.83;;;6.55;;
52940;SDS011;62001;53.366;6.636;2023-12-29T05:46:00;30.15;;;6.55;;
52940;SDS011;62001;53.366;6.636;2023-12-29T05:48:26;40.35;;;6.32;;
52940;SDS011;62001;53.366;6.636;2023-12-29T05:50:52;37.97;;;7.43;;
52940;SDS011;62001;53.366;6.636;2023-12-29T05:53:19;37.78;;;6.88;;
52940;SDS011;62001;53.366;6.636;2023-12-29T05:55:45;28.67;;;6.22;;
52940;SDS011;62001;53.366;6.636;2023-12-29T05:58:11;39.45;;;6.60;;
52940;SDS011;62001;53.366;6.636;2023-12-29T06:00:37;36.17;;;6.95;;
52940;SDS011;62001;53.366;6.636;2023-12-29T06:03:06;39.72;;;6.70;;
52940;SDS011;62001;53.366;6.636;2023-12-29T06:05:32;39.58;;;7.20;;
52940;SDS011;62001;53.366;6.636;2023-12-29T06:07:58;38.03;;;7.13;;
52940;SDS011;62001;53.366;6.636;2023-12-29T06:10:24;36.15;;;6.57;;
52940;SDS011;62001;53.366;6.636;2023-12-29T06:12:50;39.28;;;6.72;;
52940;SDS011;62001;53.366;6.636;2023-12-29T06:15:16;36.47;;;6.50;;
52940;SDS011;62001;53.366;6.636;2023-12-29T06:17:42;38.33;;;7.18;;
52940;SDS011;62001;53.366;6.636;2023-12-29T06:20:09;40.78;;;7.25;;
52940;SDS011;62001;53.366;6.636;2023-12-29T06:22:41;40.17;;;7.10;;
52940;SDS011;62001;53.366;6.636;2023-12-29T06:25:10;35.13;;;7.10;;
52940;SDS011;62001;53.366;6.636;2023-12-29T06:27:36;39.15;;;6.95;;
52940;SDS011;62001;53.366;6.636;2023-12-29T06:30:06;44.83;;;7.03;;
52940;SDS011;62001;53.366;6.636;2023-12-29T06:32:33;42.83;;;7.70;;
52940;SDS011;62001;53.366;6.636;2023-12-29T06:34:59;35.20;;;6.43;;
52940;SDS011;62001;53.366;6.636;2023-12-29T06:37:25;41.58;;;7.60;;
52940;SDS011;62001;53.366;6.636;2023-12-29T06:39:51;38.08;;;6.72;;
52940;SDS011;62001;53.366;6.636;2023-12-29T06:42:17;38.05;;;7.22;;
52940;SDS011;62001;53.366;6.636;2023-12-29T06:44:43;38.17;;;6.60;;
52940;SDS011;62001;53.366;6.636;2023-12-29T06:47:09;33.13;;;6.95;;
52940;SDS011;62001;53.366;6.636;2023-12-29T06:49:36;37.03;;;6.53;;
52940;SDS011;62001;53.366;6.636;2023-12-29T06:52:02;34.55;;;6.18;;
52940;SDS011;62001;53.366;6.636;2023-12-29T06:54:28;36.92;;;6.38;;
52940;SDS011;62001;53.366;6.636;2023-12-29T06:56:54;37.80;;;6.63;;
52940;SDS011;62001;53.366;6.636;2023-12-29T06:59:20;35.55;;;6.43;;
52940;SDS011;62001;53.366;6.636;2023-12-29T07:01:47;44.47;;;6.97;;
52940;SDS011;62001;53.366;6.636;2023-12-29T07:04:13;35.92;;;6.97;;
52940;SDS011;62001;53.366;6.636;2023-12-29T07:06:40;33.80;;;6.10;;
52940;SDS011;62001;53.366;6.636;2023-12-29T07:09:06;33.75;;;6.93;;
52940;SDS011;62001;53.366;6.636;2023-12-29T07:11:34;40.28;;;7.45;;
52940;SDS011;62001;53.366;6.636;2023-12-29T07:14:00;44.42;;;7.63;;
52940;SDS011;62001;53.366;6.636;2023-12-29T07:16:26;34.03;;;6.65;;
52940;SDS011;62001;53.366;6.636;2023-12-29T07:18:52;39.88;;;6.35;;
52940;SDS011;62001;53.366;6.636;2023-12-29T07:21:18;45.78;;;7.75;;
52940;SDS011;62001;53.366;6.636;2023-12-29T07:23:44;43.47;;;7.22;;
52940;SDS011;62001;53.366;6.636;2023-12-29T07:26:10;40.22;;;7.15;;
52940;SDS011;62001;53.366;6.636;2023-12-29T07:28:35;39.80;;;7.05;;
52940;SDS011;62001;53.366;6.636;2023-12-29T07:31:01;41.15;;;7.57;;
52940;SDS011;62001;53.366;6.636;2023-12-29T07:33:27;41.30;;;6.90;;
52940;SDS011;62001;53.366;6.636;2023-12-29T07:35:53;48.05;;;7.32;;
52940;SDS011;62001;53.366;6.636;2023-12-29T07:38:19;47.42;;;7.03;;
52940;SDS011;62001;53.366;6.636;2023-12-29T07:40:45;42.05;;;7.05;;
52940;SDS011;62001;53.366;6.636;2023-12-29T07:43:13;42.70;;;7.50;;
52940;SDS011;62001;53.366;6.636;2023-12-29T07:45:39;35.55;;;6.45;;
52940;SDS011;62001;53.366;6.636;2023-12-29T07:48:05;41.17;;;7.53;;
52940;SDS011;62001;53.366;6.636;2023-12-29T07:50:31;42.05;;;7.22;;
52940;SDS011;62001;53.366;6.636;2023-12-29T07:52:57;48.05;;;7.68;;
52940;SDS011;62001;53.366;6.636;2023-12-29T07:55:28;43.58;;;7.30;;
52940;SDS011;62001;53.366;6.636;2023-12-29T07:57:54;40.35;;;6.70;;
52940;SDS011;62001;53.366;6.636;2023-12-29T08:00:20;42.53;;;7.13;;
52940;SDS011;62001;53.366;6.636;2023-12-29T08:02:49;50.95;;;7.30;;
52940;SDS011;62001;53.366;6.636;2023-12-29T08:05:15;37.72;;;7.22;;
52940;SDS011;62001;53.366;6.636;2023-12-29T08:07:42;45.70;;;7.07;;
52940;SDS011;62001;53.366;6.636;2023-12-29T08:10:08;37.37;;;7.57;;
52940;SDS011;62001;53.366;6.636;2023-12-29T08:12:34;39.67;;;7.07;;
52940;SDS011;62001;53.366;6.636;2023-12-29T08:15:01;35.75;;;7.07;;
52940;SDS011;62001;53.366;6.636;2023-12-29T08:17:28;39.23;;;6.47;;
52940;SDS011;62001;53.366;6.636;2023-12-29T08:19:54;39.17;;;6.97;;
52940;SDS011;62001;53.366;6.636;2023-12-29T08:22:20;44.85;;;6.88;;
52940;SDS011;62001;53.366;6.636;2023-12-29T08:24:47;49.67;;;7.00;;
52940;SDS011;62001;53.366;6.636;2023-12-29T08:27:13;40.80;;;7.22;;
52940;SDS011;62001;53.366;6.636;2023-12-29T08:29:39;42.53;;;6.70;;
52940;SDS011;62001;53.366;6.636;2023-12-29T08:32:05;44.58;;;7.93;;
52940;SDS011;62001;53.366;6.636;2023-12-29T08:34:31;47.60;;;7.88;;
52940;SDS011;62001;53.366;6.636;2023-12-29T08:36:57;42.47;;;7.20;;
52940;SDS011;62001;53.366;6.636;2023-12-29T08:39:23;33.97;;;5.80;;
52940;SDS011;62001;53.366;6.636;2023-12-29T08:41:49;41.87;;;6.57;;
52940;SDS011;62001;53.366;6.636;2023-12-29T08:44:15;28.52;;;5.80;;
52940;SDS011;62001;53.366;6.636;2023-12-29T08:46:41;31.60;;;6.33;;
52940;SDS011;62001;53.366;6.636;2023-12-29T08:49:07;37.27;;;6.07;;
52940;SDS011;62001;53.366;6.636;2023-12-29T08:51:33;35.97;;;6.30;;
52940;SDS011;62001;53.366;6.636;2023-12-29T08:53:59;39.78;;;6.57;;
52940;SDS011;62001;53.366;6.636;2023-12-29T08:56:25;35.33;;;6.03;;
52940;SDS011;62001;53.366;6.636;2023-12-29T08:58:51;34.03;;;6.45;;
52940;SDS011;62001;53.366;6.636;2023-12-29T09:01:17;34.50;;;6.35;;
52940;SDS011;62001;53.366;6.636;2023-12-29T09:03:44;37.70;;;6.88;;
52940;SDS011;62001;53.366;6.636;2023-12-29T09:06:10;34.13;;;6.40;;
52940;SDS011;62001;53.366;6.636;2023-12-29T09:08:36;34.63;;;6.28;;
52940;SDS011;62001;53.366;6.636;2023-12-29T09:11:03;32.60;;;6.03;;
52940;SDS011;62001;53.366;6.636;2023-12-29T09:13:29;33.42;;;6.30;;
52940;SDS011;62001;53.366;6.636;2023-12-29T09:15:55;40.22;;;6.65;;
52940;SDS011;62001;53.366;6.636;2023-12-29T09:18:21;32.00;;;5.35;;
52940;SDS011;62001;53.366;6.636;2023-12-29T09:20:47;32.50;;;6.15;;
52940;SDS011;62001;53.366;6.636;2023-12-29T09:23:14;35.83;;;6.60;;
52940;SDS011;62001;53.366;6.636;2023-12-29T09:25:40;33.47;;;5.20;;
52940;SDS011;62001;53.366;6.636;2023-12-29T09:28:06;27.05;;;5.68;;
52940;SDS011;62001;53.366;6.636;2023-12-29T09:30:32;33.05;;;5.50;;
52940;SDS011;62001;53.366;6.636;2023-12-29T09:32:58;38.85;;;6.55;;
52940;SDS011;62001;53.366;6.636;2023-12-29T09:35:24;27.67;;;5.78;;
52940;SDS011;62001;53.366;6.636;2023-12-29T09:37:51;28.35;;;5.20;;
52940;SDS011;62001;53.366;6.636;2023-12-29T09:40:17;30.42;;;5.03;;
52940;SDS011;62001;53.366;6.636;2023-12-29T09:42:43;30.35;;;6.28;;
52940;SDS011;62001;53.366;6.636;2023-12-29T09:45:10;32.65;;;5.97;;
52940;SDS011;62001;53.366;6.636;2023-12-29T09:47:38;31.58;;;5.78;;
52940;SDS011;62001;53.366;6.636;2023-12-29T09:50:14;31.15;;;5.10;;
52940;SDS011;62001;53.366;6.636;2023-12-29T09:52:41;31.13;;;5.35;;
52940;SDS011;62001;53.366;6.636;2023-12-29T09:55:09;30.45;;;5.68;;
52940;SDS011;62001;53.366;6.636;2023-12-29T09:57:36;40.20;;;5.72;;
52940;SDS011;62001;53.366;6.636;2023-12-29T10:00:03;38.00;;;6.43;;
52940;SDS011;62001;53.366;6.636;2023-12-29T10:02:30;35.67;;;6.90;;
52940;SDS011;62001;53.366;6.636;2023-12-29T10:04:56;35.65;;;6.75;;
52940;SDS011;62001;53.366;6.636;2023-12-29T10:07:25;32.43;;;7.00;;
52940;SDS011;62001;53.366;6.636;2023-12-29T10:09:55;40.65;;;7.22;;
52940;SDS011;62001;53.366;6.636;2023-12-29T10:12:23;39.15;;;6.32;;
52940;SDS011;62001;53.366;6.636;2023-12-29T10:14:57;35.65;;;6.15;;
52940;SDS011;62001;53.366;6.636;2023-12-29T10:17:33;35.03;;;6.03;;
52940;SDS011;62001;53.366;6.636;2023-12-29T10:23:11;35.03;;;5.97;;
52940;SDS011;62001;53.366;6.636;2023-12-29T10:25:42;30.25;;;6.30;;
52940;SDS011;62001;53.366;6.636;2023-12-29T10:28:09;34.75;;;5.82;;
52940;SDS011;62001;53.366;6.636;2023-12-29T10:30:35;30.55;;;5.45;;
52940;SDS011;62001;53.366;6.636;2023-12-29T10:33:02;29.98;;;5.35;;
52940;SDS011;62001;53.366;6.636;2023-12-29T10:35:30;33.53;;;5.85;;
52940;SDS011;62001;53.366;6.636;2023-12-29T10:38:12;36.72;;;6.20;;
52940;SDS011;62001;53.366;6.636;2023-12-29T10:40:41;30.92;;;6.60;;
52940;SDS011;62001;53.366;6.636;2023-12-29T10:43:08;36.60;;;6.45;;
52940;SDS011;62001;53.366;6.636;2023-12-29T10:45:34;32.53;;;6.03;;
52940;SDS011;62001;53.366;6.636;2023-12-29T10:48:03;30.33;;;5.63;;
52940;SDS011;62001;53.366;6.636;2023-12-29T10:50:29;34.38;;;6.82;;
52940;SDS011;62001;53.366;6.636;2023-12-29T10:53:10;29.52;;;6.10;;
52940;SDS011;62001;53.366;6.636;2023-12-29T10:55:37;25.42;;;5.53;;
52940;SDS011;62001;53.366;6.636;2023-12-29T10:58:03;30.00;;;5.78;;
52940;SDS011;62001;53.366;6.636;2023-12-29T11:00:30;29.33;;;5.38;;
52940;SDS011;62001;53.366;6.636;2023-12-29T11:02:58;21.33;;;4.70;;
52940;SDS011;62001;53.366;6.636;2023-12-29T11:05:25;24.52;;;4.72;;
52940;SDS011;62001;53.366;6.636;2023-12-29T11:07:52;25.27;;;5.28;;
52940;SDS011;62001;53.366;6.636;2023-12-29T11:10:20;28.15;;;5.07;;
52940;SDS011;62001;53.366;6.636;2023-12-29T11:12:47;20.80;;;6.45;;
52940;SDS011;62001;53.366;6.636;2023-12-29T11:15:14;25.38;;;5.03;;
52940;SDS011;62001;53.366;6.636;2023-12-29T11:17:41;23.55;;;4.65;;
52940;SDS011;62001;53.366;6.636;2023-12-29T11:20:17;26.33;;;4.05;;
52940;SDS011;62001;53.366;6.636;2023-12-29T11:22:45;21.63;;;4.43;;
52940;SDS011;62001;53.366;6.636;2023-12-29T11:25:12;30.52;;;4.55;;
52940;SDS011;62001;53.366;6.636;2023-12-29T11:27:40;21.75;;;4.35;;
52940;SDS011;62001;53.366;6.636;2023-12-29T11:30:09;24.95;;;4.45;;
52940;SDS011;62001;53.366;6.636;2023-12-29T11:32:53;29.38;;;4.32;;
52940;SDS011;62001;53.366;6.636;2023-12-29T11:35:25;18.45;;;4.15;;
52940;SDS011;62001;53.366;6.636;2023-12-29T11:43:08;27.63;;;4.85;;
52940;SDS011;62001;53.366;6.636;2023-12-29T11:45:37;24.05;;;4.60;;
52940;SDS011;62001;53.366;6.636;2023-12-29T11:48:04;20.27;;;4.35;;
52940;SDS011;62001;53.366;6.636;2023-12-29T11:50:37;24.10;;;4.43;;
52940;SDS011;62001;53.366;6.636;2023-12-29T11:53:07;24.95;;;4.20;;
52940;SDS011;62001;53.366;6.636;2023-12-29T11:55:36;27.00;;;5.15;;
52940;SDS011;62001;53.366;6.636;2023-12-29T11:58:04;21.13;;;4.32;;
52940;SDS011;62001;53.366;6.636;2023-12-29T12:00:48;23.98;;;4.80;;
52940;SDS011;62001;53.366;6.636;2023-12-29T12:03:18;21.13;;;4.15;;
52940;SDS011;62001;53.366;6.636;2023-12-29T12:05:54;25.48;;;4.32;;
52940;SDS011;62001;53.366;6.636;2023-12-29T12:10:53;24.95;;;4.45;;
52940;SDS011;62001;53.366;6.636;2023-12-29T12:19:13;21.00;;;4.45;;
52940;SDS011;62001;53.366;6.636;2023-12-29T12:21:39;27.13;;;4.97;;
52940;SDS011;62001;53.366;6.636;2023-12-29T12:24:06;25.33;;;4.85;;
52940;SDS011;62001;53.366;6.636;2023-12-29T12:26:32;22.95;;;4.30;;
52940;SDS011;62001;53.366;6.636;2023-12-29T12:28:59;22.73;;;4.47;;
52940;SDS011;62001;53.366;6.636;2023-12-29T12:31:26;23.02;;;4.05;;
52940;SDS011;62001;53.366;6.636;2023-12-29T12:33:55;22.75;;;4.18;;
52940;SDS011;62001;53.366;6.636;2023-12-29T12:36:21;21.23;;;4.05;;
52940;SDS011;62001;53.366;6.636;2023-12-29T12:38:51;22.00;;;4.20;;
52940;SDS011;62001;53.366;6.636;2023-12-29T12:41:17;26.48;;;4.45;;
52940;SDS011;62001;53.366;6.636;2023-12-29T12:44:29;27.90;;;4.47;;
52940;SDS011;62001;53.366;6.636;2023-12-29T12:46:55;28.55;;;5.05;;
52940;SDS011;62001;53.366;6.636;2023-12-29T12:49:23;28.50;;;5.18;;
52940;SDS011;62001;53.366;6.636;2023-12-29T12:51:48;25.63;;;3.97;;
52940;SDS011;62001;53.366;6.636;2023-12-29T12:54:18;26.58;;;4.43;;
52940;SDS011;62001;53.366;6.636;2023-12-29T12:56:45;25.30;;;4.50;;
52940;SDS011;62001;53.366;6.636;2023-12-29T12:59:11;25.08;;;4.70;;
52940;SDS011;62001;53.366;6.636;2023-12-29T13:01:38;23.63;;;4.72;;
52940;SDS011;62001;53.366;6.636;2023-12-29T13:04:05;26.58;;;4.75;;
52940;SDS011;62001;53.366;6.636;2023-12-29T13:06:32;22.38;;;4.60;;
52940;SDS011;62001;53.366;6.636;2023-12-29T13:09:02;23.40;;;4.72;;
52940;SDS011;62001;53.366;6.636;2023-12-29T13:11:34;24.38;;;4.50;;
52940;SDS011;62001;53.366;6.636;2023-12-29T13:13:59;22.30;;;4.93;;
52940;SDS011;62001;53.366;6.636;2023-12-29T13:16:31;25.17;;;5.03;;
52940;SDS011;62001;53.366;6.636;2023-12-29T13:19:14;25.02;;;4.97;;
52940;SDS011;62001;53.366;6.636;2023-12-29T13:21:51;29.92;;;4.70;;
52940;SDS011;62001;53.366;6.636;2023-12-29T13:24:24;23.63;;;5.00;;
52940;SDS011;62001;53.366;6.636;2023-12-29T13:26:51;30.17;;;4.90;;
52940;SDS011;62001;53.366;6.636;2023-12-29T13:29:19;32.72;;;4.97;;
52940;SDS011;62001;53.366;6.636;2023-12-29T13:31:50;22.58;;;4.90;;
52940;SDS011;62001;53.366;6.636;2023-12-29T13:34:39;28.75;;;5.03;;
52940;SDS011;62001;53.366;6.636;2023-12-29T13:42:39;25.63;;;5.00;;
52940;SDS011;62001;53.366;6.636;2023-12-29T13:45:09;28.05;;;5.30;;
52940;SDS011;62001;53.366;6.636;2023-12-29T13:47:37;24.03;;;4.90;;
52940;SDS011;62001;53.366;6.636;2023-12-29T13:50:04;26.45;;;5.85;;
52940;SDS011;62001;53.366;6.636;2023-12-29T13:52:31;30.87;;;5.97;;
52940;SDS011;62001;53.366;6.636;2023-12-29T13:54:57;29.58;;;5.32;;
52940;SDS011;62001;53.366;6.636;2023-12-29T13:57:30;28.80;;;5.10;;
52940;SDS011;62001;53.366;6.636;2023-12-29T13:59:57;24.43;;;5.00;;
52940;SDS011;62001;53.366;6.636;2023-12-29T14:02:32;33.77;;;5.50;;
52940;SDS011;62001;53.366;6.636;2023-12-29T14:05:19;35.47;;;6.00;;
52940;SDS011;62001;53.366;6.636;2023-12-29T14:10:30;34.55;;;5.85;;
52940;SDS011;62001;53.366;6.636;2023-12-29T14:13:07;25.02;;;5.75;;
52940;SDS011;62001;53.366;6.636;2023-12-29T14:15:35;23.63;;;5.00;;
52940;SDS011;62001;53.366;6.636;2023-12-29T14:18:03;25.50;;;5.07;;
52940;SDS011;62001;53.366;6.636;2023-12-29T14:20:50;26.67;;;5.03;;
52940;SDS011;62001;53.366;6.636;2023-12-29T14:23:17;34.78;;;5.55;;
52940;SDS011;62001;53.366;6.636;2023-12-29T14:25:44;26.50;;;5.10;;
52940;SDS011;62001;53.366;6.636;2023-12-29T14:28:16;20.67;;;5.20;;
52940;SDS011;62001;53.366;6.636;2023-12-29T14:30:48;26.63;;;4.80;;
52940;SDS011;62001;53.366;6.636;2023-12-29T14:33:14;28.63;;;4.80;;
52940;SDS011;62001;53.366;6.636;2023-12-29T14:35:40;25.43;;;4.23;;
52940;SDS011;62001;53.366;6.636;2023-12-29T14:38:06;25.65;;;4.78;;
52940;SDS011;62001;53.366;6.636;2023-12-29T14:40:42;24.37;;;4.50;;
52940;SDS011;62001;53.366;6.636;2023-12-29T14:43:10;23.20;;;4.50;;
52940;SDS011;62001;53.366;6.636;2023-12-29T14:45:36;33.10;;;6.57;;
52940;SDS011;62001;53.366;6.636;2023-12-29T14:48:05;34.83;;;5.10;;
52940;SDS011;62001;53.366;6.636;2023-12-29T14:50:32;28.93;;;5.20;;
52940;SDS011;62001;53.366;6.636;2023-12-29T14:52:58;25.80;;;4.60;;
52940;SDS011;62001;53.366;6.636;2023-12-29T14:55:23;22.67;;;4.83;;
52940;SDS011;62001;53.366;6.636;2023-12-29T14:57:51;25.57;;;4.90;;
52940;SDS011;62001;53.366;6.636;2023-12-29T15:00:17;24.17;;;4.93;;